Terminal Aerodrome Forecast
Issued by NWS

Home | Current Version | Previous Version | Text Only | Print | Product List | Glossary On
Versions: 1 2 3 4 5 6 7 8 9 10 11 12 13 14 15 16 17 18 19
000
FTUS45 KSLC 231747
TAFSGU
TAF
KSGU 231747Z 2318/2418 25010KT P6SM -SHRA VCTS SCT040CB BKN060
     FM232000 28012KT P6SM -SHRA SCT040 BKN060
     FM240200 VRB04KT P6SM VCSH SCT080 SCT120
     FM241000 12006KT P6SM SCT100=

USA.gov is the U.S. government's official web portal to all federal, state and local government web resources and services.